createdAt,value
2023-05-05T00:01:35.212Z,101687.91
2023-05-05T00:04:40.919Z,101686.00
2023-05-05T00:07:47.164Z,101682.59
2023-05-05T00:10:53.907Z,101684.09
2023-05-05T00:13:59.989Z,101682.59
2023-05-05T00:17:06.202Z,101687.28
2023-05-05T00:20:12.680Z,101676.66
2023-05-05T00:23:21.095Z,101685.28
2023-05-05T00:26:26.879Z,101680.94
2023-05-05T00:29:33.387Z,101677.63
2023-05-05T00:32:39.735Z,101673.28
2023-05-05T00:35:45.899Z,101680.03
2023-05-05T00:38:52.265Z,101681.25
2023-05-05T00:41:57.651Z,101678.72
2023-05-05T00:45:03.129Z,101673.47
2023-05-05T00:48:09.641Z,101667.41
2023-05-05T00:51:17.121Z,101665.19
2023-05-05T00:54:23.238Z,101664.72
2023-05-05T00:57:28.830Z,101653.97
2023-05-05T01:00:34.738Z,101658.69
2023-05-05T01:03:44.391Z,101653.66
2023-05-05T01:07:24.426Z,101660.72
2023-05-05T01:10:49.328Z,101650.81
2023-05-05T01:14:03.396Z,101644.47
2023-05-05T01:17:11.477Z,101641.03
2023-05-05T01:20:31.740Z,101636.06
2023-05-05T01:23:37.112Z,101642.09
2023-05-05T01:27:13.317Z,101634.16
2023-05-05T01:30:34.874Z,101633.94
2023-05-05T01:33:48.687Z,101632.59
2023-05-05T01:37:12.071Z,101628.19
2023-05-05T01:40:23.245Z,101620.59
2023-05-05T01:43:32.614Z,101622.03
2023-05-05T01:46:38.804Z,101624.84
2023-05-05T01:49:48.195Z,101622.25
2023-05-05T01:52:55.855Z,101618.84
2023-05-05T01:56:03.123Z,101621.16
2023-05-05T01:59:10.226Z,101622.78
2023-05-05T02:02:16.995Z,101621.84
2023-05-05T02:05:26.906Z,101633.81
2023-05-05T02:08:36.150Z,101631.53
2023-05-05T02:11:42.318Z,101625.03
2023-05-05T02:14:49.321Z,101624.56
2023-05-05T02:17:58.485Z,101621.38
2023-05-05T02:21:04.850Z,101628.03
2023-05-05T02:24:11.842Z,101628.50
2023-05-05T02:27:21.246Z,101624.78
2023-05-05T02:30:31.045Z,101625.47
2023-05-05T02:33:38.667Z,101620.72
2023-05-05T02:36:46.940Z,101611.81
2023-05-05T02:40:02.192Z,101620.25
2023-05-05T02:43:15.419Z,101612.19
2023-05-05T02:46:21.240Z,101619.75
2023-05-05T02:49:27.324Z,101613.56
2023-05-05T02:52:38.465Z,101619.06
2023-05-05T02:56:08.640Z,101621.84
2023-05-05T02:59:47.848Z,101626.38
2023-05-05T03:03:41.232Z,101619.03
2023-05-05T03:06:54.080Z,101615.19
2023-05-05T03:10:14.412Z,101612.53
2023-05-05T03:13:27.216Z,101602.25
2023-05-05T03:16:36.825Z,101604.81
2023-05-05T03:19:44.682Z,101606.56
2023-05-05T03:22:50.501Z,101605.19
2023-05-05T03:25:55.898Z,101594.91
2023-05-05T03:29:09.947Z,101602.50
2023-05-05T03:32:18.503Z,101600.97
2023-05-05T03:35:25.208Z,101606.19
2023-05-05T03:38:30.993Z,101606.09
2023-05-05T03:41:36.316Z,101600.25
2023-05-05T03:44:43.381Z,101603.78
2023-05-05T03:47:49.367Z,101607.41
2023-05-05T03:50:55.229Z,101597.94
2023-05-05T03:54:02.900Z,101595.38
2023-05-05T03:57:08.676Z,101595.16
2023-05-05T04:00:15.639Z,101596.66
2023-05-05T04:03:24.402Z,101594.22
2023-05-05T04:06:30.475Z,101592.09
2023-05-05T04:09:36.405Z,101595.59
2023-05-05T04:12:42.427Z,101592.13
2023-05-05T04:15:48.036Z,101595.59
2023-05-05T04:18:55.697Z,101597.25
2023-05-05T04:22:01.674Z,101595.84
2023-05-05T04:25:08.283Z,101599.72
2023-05-05T04:28:14.271Z,101596.09
2023-05-05T04:31:20.438Z,101589.41
2023-05-05T04:34:25.773Z,101600.84
2023-05-05T04:37:31.042Z,101605.75
2023-05-05T04:40:41.505Z,101600.97
2023-05-05T04:43:48.123Z,101604.38
2023-05-05T04:46:54.391Z,101612.97
2023-05-05T04:50:00.265Z,101607.41
2023-05-05T04:53:07.090Z,101611.69
2023-05-05T04:56:12.682Z,101615.34
2023-05-05T04:59:18.028Z,101609.56
2023-05-05T05:02:23.793Z,101608.63
2023-05-05T05:05:29.627Z,101610.47
2023-05-05T05:08:35.451Z,101614.06
2023-05-05T05:11:40.714Z,101610.13
2023-05-05T05:14:45.910Z,101612.81
2023-05-05T05:17:51.682Z,101622.09
2023-05-05T05:20:57.491Z,101619.81
2023-05-05T05:24:03.010Z,101618.09
2023-05-05T05:27:10.267Z,101621.34
2023-05-05T05:30:19.216Z,101621.53
2023-05-05T05:33:25.359Z,101629.44
2023-05-05T05:36:33.138Z,101631.19
2023-05-05T05:39:39.428Z,101625.28
2023-05-05T05:42:46.543Z,101623.81
2023-05-05T05:45:52.179Z,101621.63
2023-05-05T05:48:58.742Z,101616.31
2023-05-05T05:52:03.974Z,101621.59
2023-05-05T05:55:09.700Z,101626.81
2023-05-05T05:58:17.425Z,101620.69
2023-05-05T06:01:23.806Z,101624.38
2023-05-05T06:04:31.399Z,101629.81
2023-05-05T06:07:37.144Z,101623.91
2023-05-05T06:10:42.885Z,101629.34
2023-05-05T06:13:53.860Z,101634.41
2023-05-05T06:16:59.093Z,101626.09
2023-05-05T06:20:07.515Z,101627.00
2023-05-05T06:23:13.303Z,101632.78
2023-05-05T06:26:23.790Z,101636.28
2023-05-05T06:29:29.573Z,101639.53
2023-05-05T06:32:35.311Z,101638.31
2023-05-05T06:35:40.883Z,101633.94
2023-05-05T06:38:46.604Z,101636.56
2023-05-05T06:41:52.189Z,101644.78
2023-05-05T06:44:57.692Z,101639.91
2023-05-05T06:48:03.051Z,101639.88
2023-05-05T06:51:09.333Z,101644.00
2023-05-05T06:54:14.819Z,101640.75
2023-05-05T06:57:20.216Z,101643.28
2023-05-05T07:00:25.790Z,101654.97
2023-05-05T07:03:31.872Z,101648.25
2023-05-05T07:06:37.184Z,101644.56
2023-05-05T07:09:43.027Z,101652.66
2023-05-05T07:12:48.837Z,101653.13
2023-05-05T07:15:54.308Z,101651.03
2023-05-05T07:19:01.097Z,101650.06
2023-05-05T07:22:06.561Z,101648.53
2023-05-05T07:25:12.465Z,101652.63
2023-05-05T07:28:18.231Z,101653.19
2023-05-05T07:31:23.820Z,101655.34
2023-05-05T07:34:29.752Z,101657.22
2023-05-05T07:37:35.533Z,101658.03
2023-05-05T07:40:41.032Z,101652.66
2023-05-05T07:43:46.345Z,101658.34
2023-05-05T07:46:51.838Z,101662.94
2023-05-05T07:49:57.479Z,101655.38
2023-05-05T07:53:13.871Z,101652.66
2023-05-05T07:56:21.755Z,101658.34
2023-05-05T07:59:27.599Z,101642.06
2023-05-05T08:02:33.238Z,101648.28
2023-05-05T08:05:39.316Z,101643.16
2023-05-05T08:08:44.833Z,101646.31
2023-05-05T08:11:50.202Z,101638.53
2023-05-05T08:14:55.810Z,101642.78
2023-05-05T08:18:01.419Z,101639.28
2023-05-05T08:21:08.095Z,101646.81
2023-05-05T08:24:13.262Z,101651.91
2023-05-05T08:27:18.568Z,101645.94
2023-05-05T08:30:24.455Z,101656.00
2023-05-05T08:33:30.050Z,101639.59
2023-05-05T08:36:35.696Z,101637.28
2023-05-05T08:39:42.204Z,101644.28
2023-05-05T08:42:47.718Z,101639.06
2023-05-05T08:45:56.584Z,101645.00
2023-05-05T08:49:04.175Z,101645.66
2023-05-05T08:52:11.930Z,101646.66
2023-05-05T08:55:25.908Z,101644.13
2023-05-05T08:58:36.407Z,101641.19
2023-05-05T09:01:43.300Z,101654.72
2023-05-05T09:04:49.070Z,101647.84
2023-05-05T09:07:54.826Z,101650.38
2023-05-05T09:11:01.837Z,101643.78
2023-05-05T09:14:07.405Z,101643.28
2023-05-05T09:17:27.951Z,101636.84
2023-05-05T09:20:35.961Z,101643.19
2023-05-05T09:24:08.238Z,101639.84
2023-05-05T09:27:23.864Z,101636.44
2023-05-05T09:30:29.231Z,101629.13
2023-05-05T09:33:35.131Z,101626.88
2023-05-05T09:36:43.387Z,101623.72
2023-05-05T09:39:55.793Z,101629.72
2023-05-05T09:43:03.069Z,101620.38
2023-05-05T09:46:08.946Z,101623.16
2023-05-05T09:49:20.481Z,101618.41
2023-05-05T09:52:25.867Z,101618.25
2023-05-05T09:55:31.713Z,101617.28
2023-05-05T09:58:37.337Z,101617.03
2023-05-05T10:01:45.435Z,101602.91
2023-05-05T10:04:50.823Z,101609.69
2023-05-05T10:08:12.808Z,101612.50
2023-05-05T10:11:18.346Z,101603.09
2023-05-05T10:14:25.580Z,101596.63
2023-05-05T10:17:36.128Z,101600.91
2023-05-05T10:20:44.144Z,101593.63
2023-05-05T10:23:58.261Z,101589.94
2023-05-05T10:27:13.084Z,101597.56
2023-05-05T10:30:24.584Z,101591.13
2023-05-05T10:33:38.017Z,101585.69
2023-05-05T10:36:43.452Z,101588.81
2023-05-05T10:39:51.443Z,101585.94
2023-05-05T10:42:56.836Z,101570.84
2023-05-05T10:46:02.952Z,101576.63
2023-05-05T10:49:29.461Z,101572.44
2023-05-05T10:53:04.201Z,101557.91
2023-05-05T10:56:33.036Z,101560.91
2023-05-05T10:59:38.925Z,101567.50
2023-05-05T11:02:44.612Z,101557.31
2023-05-05T11:06:05.934Z,101555.00
2023-05-05T11:09:30.152Z,101546.09
2023-05-05T11:12:58.319Z,101547.72
2023-05-05T11:16:04.423Z,101542.19
2023-05-05T11:19:44.424Z,101542.28
2023-05-05T11:23:05.317Z,101532.84
2023-05-05T11:26:13.247Z,101531.63
2023-05-05T11:29:18.523Z,101528.56
2023-05-05T11:32:25.192Z,101518.78
2023-05-05T11:35:55.368Z,101521.41
2023-05-05T11:39:19.569Z,101522.25
2023-05-05T11:42:26.888Z,101510.53
2023-05-05T11:45:32.411Z,101506.31
2023-05-05T11:48:53.180Z,101504.09
2023-05-05T11:52:00.411Z,101503.91
2023-05-05T11:55:06.261Z,101494.94
2023-05-05T11:58:21.275Z,101500.00
2023-05-05T12:01:26.999Z,101510.97
2023-05-05T12:04:32.576Z,101497.94
2023-05-05T12:07:38.242Z,101495.25
2023-05-05T12:10:44.443Z,101490.13
2023-05-05T12:13:50.910Z,101494.44
2023-05-05T12:17:01.689Z,101471.06
2023-05-05T12:20:07.949Z,101483.25
2023-05-05T12:23:14.807Z,101484.75
2023-05-05T12:26:32.849Z,101470.84
2023-05-05T12:29:38.339Z,101466.47
2023-05-05T12:32:45.122Z,101464.59
2023-05-05T12:35:50.616Z,101465.34
2023-05-05T12:38:56.367Z,101460.72
2023-05-05T12:42:05.204Z,101460.31
2023-05-05T12:45:20.548Z,101455.34
2023-05-05T12:48:25.902Z,101454.34
2023-05-05T12:51:32.442Z,101444.81
2023-05-05T12:54:59.689Z,101440.28
2023-05-05T12:58:04.825Z,101429.88
2023-05-05T13:01:11.191Z,101429.78
2023-05-05T13:04:17.249Z,101429.84
2023-05-05T13:07:23.036Z,101431.41
2023-05-05T13:10:31.629Z,101423.31
2023-05-05T13:13:37.610Z,101417.56
2023-05-05T13:16:42.839Z,101421.00
2023-05-05T13:19:48.184Z,101406.47
2023-05-05T13:22:53.470Z,101407.91
2023-05-05T13:25:58.970Z,101394.84
2023-05-05T13:29:04.541Z,101401.16
2023-05-05T13:32:09.656Z,101398.16
2023-05-05T13:35:16.314Z,101400.13
2023-05-05T13:38:21.831Z,101388.41
2023-05-05T13:41:27.205Z,101400.81
2023-05-05T13:44:32.823Z,101399.44
2023-05-05T13:47:38.526Z,101399.44
2023-05-05T13:50:44.277Z,101385.53
2023-05-05T13:53:50.081Z,101381.13
2023-05-05T13:56:55.041Z,101381.72
2023-05-05T14:00:00.352Z,101378.94
2023-05-05T14:03:06.211Z,101373.81
2023-05-05T14:06:11.840Z,101370.41
2023-05-05T14:09:17.237Z,101367.28
2023-05-05T14:12:24.074Z,101351.19
2023-05-05T14:15:30.544Z,101356.50
2023-05-05T14:18:35.972Z,101355.16
2023-05-05T14:21:41.343Z,101354.59
2023-05-05T14:24:46.610Z,101351.75
2023-05-05T14:27:53.262Z,101361.09
2023-05-05T14:30:58.785Z,101355.03
2023-05-05T14:34:04.022Z,101342.88
2023-05-05T14:37:09.315Z,101341.44
2023-05-05T14:40:14.599Z,101350.00
2023-05-05T14:43:19.854Z,101344.22
2023-05-05T14:46:26.771Z,101348.09
2023-05-05T14:49:31.981Z,101346.63
2023-05-05T14:52:39.484Z,101339.81
2023-05-05T14:55:45.043Z,101333.63
2023-05-05T14:58:50.937Z,101337.16
2023-05-05T15:01:57.275Z,101339.53
2023-05-05T15:05:02.705Z,101332.13
2023-05-05T15:08:08.000Z,101332.75
2023-05-05T15:11:14.253Z,101337.44
2023-05-05T15:14:19.479Z,101337.75
2023-05-05T15:17:25.332Z,101337.13
2023-05-05T15:20:31.024Z,101333.84
2023-05-05T15:23:36.591Z,101330.66
2023-05-05T15:26:42.181Z,101326.28
2023-05-05T15:29:48.781Z,101313.66
2023-05-05T15:32:54.770Z,101315.88
2023-05-05T15:36:00.453Z,101320.78
2023-05-05T15:39:05.923Z,101313.19
2023-05-05T15:42:11.455Z,101309.56
2023-05-05T15:45:17.681Z,101302.91
2023-05-05T15:48:22.842Z,101313.34
2023-05-05T15:51:27.895Z,101299.56
2023-05-05T15:54:33.153Z,101298.94
2023-05-05T15:57:40.508Z,101294.59
2023-05-05T16:00:45.963Z,101289.72
2023-05-05T16:03:51.235Z,101293.34
2023-05-05T16:06:58.454Z,101289.16
2023-05-05T16:10:04.056Z,101292.13
2023-05-05T16:13:09.253Z,101287.09
2023-05-05T16:16:14.386Z,101282.34
2023-05-05T16:19:19.949Z,101292.66
2023-05-05T16:22:25.149Z,101290.56
2023-05-05T16:25:31.285Z,101294.59
2023-05-05T16:28:38.058Z,101288.81
2023-05-05T16:31:43.557Z,101287.59
2023-05-05T16:34:48.803Z,101287.78
2023-05-05T16:37:54.252Z,101289.16
2023-05-05T16:41:00.146Z,101280.59
2023-05-05T16:44:05.201Z,101279.53
2023-05-05T16:47:10.622Z,101272.88
2023-05-05T16:50:17.730Z,101278.41
2023-05-05T16:53:23.598Z,101269.09
2023-05-05T16:56:29.240Z,101271.19
2023-05-05T16:59:34.849Z,101263.63
2023-05-05T17:02:40.381Z,101265.19
2023-05-05T17:05:49.638Z,101264.41
2023-05-05T17:08:55.516Z,101264.97
2023-05-05T17:12:00.970Z,101259.72
2023-05-05T17:15:07.161Z,101260.84
2023-05-05T17:18:12.551Z,101259.66
2023-05-05T17:21:18.143Z,101255.75
2023-05-05T17:24:24.313Z,101252.28
2023-05-05T17:27:30.251Z,101254.31
2023-05-05T17:30:35.787Z,101252.19
2023-05-05T17:33:41.406Z,101257.75
2023-05-05T17:36:47.105Z,101257.34
2023-05-05T17:39:52.729Z,101254.75
2023-05-05T17:42:58.282Z,101258.97
2023-05-05T17:46:03.850Z,101259.78
2023-05-05T17:49:09.502Z,101265.41
2023-05-05T17:52:15.545Z,101269.28
2023-05-05T17:55:21.144Z,101266.50
2023-05-05T17:58:27.570Z,101274.03
2023-05-05T18:01:33.125Z,101269.78
2023-05-05T18:04:39.078Z,101275.59
2023-05-05T18:07:44.361Z,101271.72
2023-05-05T18:10:49.603Z,101277.94
2023-05-05T18:13:56.513Z,101267.91
2023-05-05T18:17:01.767Z,101269.38
2023-05-05T18:20:07.756Z,101267.53
2023-05-05T18:23:13.501Z,101269.88
2023-05-05T18:26:19.058Z,101271.84
2023-05-05T18:29:24.683Z,101271.63
2023-05-05T18:32:31.052Z,101276.28
2023-05-05T18:35:36.618Z,101269.63
2023-05-05T18:38:42.141Z,101276.72
2023-05-05T18:41:47.824Z,101273.84
2023-05-05T18:44:53.494Z,101273.09
2023-05-05T18:47:59.145Z,101269.94
2023-05-05T18:51:05.596Z,101277.66
2023-05-05T18:54:11.264Z,101278.22
2023-05-05T18:57:17.052Z,101281.28
2023-05-05T19:00:22.973Z,101276.44
2023-05-05T19:03:28.890Z,101284.28
2023-05-05T19:06:34.367Z,101288.66
2023-05-05T19:09:39.964Z,101283.38
2023-05-05T19:12:45.563Z,101287.97
2023-05-05T19:15:52.843Z,101289.13
2023-05-05T19:19:01.192Z,101284.03
2023-05-05T19:22:07.044Z,101276.22
2023-05-05T19:25:14.698Z,101274.63
2023-05-05T19:28:20.902Z,101279.88
2023-05-05T19:31:28.151Z,101279.31
2023-05-05T19:34:34.723Z,101279.91
2023-05-05T19:37:44.278Z,101287.88
2023-05-05T19:40:51.518Z,101288.31
2023-05-05T19:44:03.373Z,101291.31
2023-05-05T19:47:10.308Z,101290.00
2023-05-05T19:50:16.557Z,101290.84
2023-05-05T19:53:21.726Z,101283.06
2023-05-05T19:56:28.002Z,101282.50
2023-05-05T19:59:34.284Z,101285.00
2023-05-05T20:02:41.591Z,101285.31
2023-05-05T20:05:47.807Z,101286.63
2023-05-05T20:08:55.023Z,101284.22
2023-05-05T20:12:02.320Z,101286.94
2023-05-05T20:15:08.714Z,101283.44
2023-05-05T20:18:14.208Z,101289.41
2023-05-05T20:21:20.480Z,101291.84
2023-05-05T20:24:26.213Z,101305.09
2023-05-05T20:27:32.506Z,101296.97
2023-05-05T20:30:39.013Z,101295.91
2023-05-05T20:33:45.235Z,101291.63
2023-05-05T20:36:52.890Z,101297.56
2023-05-05T20:39:58.687Z,101307.84
2023-05-05T20:43:04.490Z,101300.63
2023-05-05T20:46:14.457Z,101300.63
2023-05-05T20:49:20.013Z,101296.34
2023-05-05T20:52:26.211Z,101297.75
2023-05-05T20:55:31.538Z,101290.75
2023-05-05T20:58:37.674Z,101292.94
2023-05-05T21:01:44.324Z,101285.88
2023-05-05T21:04:50.680Z,101295.38
2023-05-05T21:07:57.815Z,101295.09
2023-05-05T21:11:08.806Z,101293.47
2023-05-05T21:14:14.705Z,101287.53
2023-05-05T21:17:20.835Z,101290.78
2023-05-05T21:20:27.115Z,101296.75
2023-05-05T21:23:32.647Z,101287.28
2023-05-05T21:26:38.150Z,101294.06
2023-05-05T21:29:43.623Z,101297.31
2023-05-05T21:32:49.364Z,101289.75
2023-05-05T21:35:54.869Z,101298.38
2023-05-05T21:39:01.222Z,101298.41
2023-05-05T21:42:06.848Z,101298.94
2023-05-05T21:45:12.861Z,101300.53
2023-05-05T21:48:18.634Z,101297.59
2023-05-05T21:51:24.420Z,101299.69
2023-05-05T21:54:30.476Z,101296.75
2023-05-05T21:57:36.372Z,101290.56
2023-05-05T22:00:42.616Z,101293.50
2023-05-05T22:03:48.242Z,101294.06
2023-05-05T22:06:54.229Z,101296.47
2023-05-05T22:09:59.701Z,101294.59
2023-05-05T22:13:05.851Z,101283.00
2023-05-05T22:16:12.499Z,101284.31
2023-05-05T22:19:21.205Z,101289.44
2023-05-05T22:22:26.608Z,101290.25
2023-05-05T22:25:32.212Z,101290.22
2023-05-05T22:28:38.812Z,101289.66
2023-05-05T22:31:44.298Z,101283.19
2023-05-05T22:34:49.893Z,101286.63
2023-05-05T22:37:55.201Z,101282.84
2023-05-05T22:41:01.322Z,101284.47
2023-05-05T22:44:07.209Z,101281.25
2023-05-05T22:47:13.553Z,101281.72
2023-05-05T22:50:19.359Z,101286.09
2023-05-05T22:53:25.077Z,101283.63
2023-05-05T22:56:30.626Z,101284.16
2023-05-05T22:59:36.283Z,101284.44
2023-05-05T23:02:42.235Z,101282.56
2023-05-05T23:05:47.645Z,101277.66
2023-05-05T23:08:53.457Z,101280.31
2023-05-05T23:11:59.568Z,101273.63
2023-05-05T23:15:05.892Z,101272.78
2023-05-05T23:18:11.595Z,101271.72
2023-05-05T23:21:16.877Z,101270.56
2023-05-05T23:24:22.625Z,101276.00
2023-05-05T23:27:28.614Z,101274.31
2023-05-05T23:30:34.536Z,101273.53
2023-05-05T23:33:39.897Z,101273.47
2023-05-05T23:36:45.636Z,101271.09
2023-05-05T23:39:51.290Z,101270.75
2023-05-05T23:42:57.105Z,101263.69
2023-05-05T23:46:03.137Z,101265.00
2023-05-05T23:49:08.715Z,101259.38
2023-05-05T23:52:14.636Z,101255.16
2023-05-05T23:55:20.968Z,101257.31
2023-05-05T23:58:26.900Z,101249.53
